sensor_id;sensor_type;location;lat;lon;timestamp;temperature;humidity
3067;DHT22;1544;48.834;9.194;2023-02-28T00:02:16;0.30;26.00
3067;DHT22;1544;48.834;9.194;2023-02-28T00:04:54;0.30;25.90
3067;DHT22;1544;48.834;9.194;2023-02-28T00:07:36;0.20;25.90
3067;DHT22;1544;48.834;9.194;2023-02-28T00:10:13;0.20;26.00
3067;DHT22;1544;48.834;9.194;2023-02-28T00:12:51;0.20;26.00
3067;DHT22;1544;48.834;9.194;2023-02-28T00:15:27;0.20;26.20
3067;DHT22;1544;48.834;9.194;2023-02-28T00:18:02;0.20;26.20
3067;DHT22;1544;48.834;9.194;2023-02-28T00:20:37;0.10;26.10
3067;DHT22;1544;48.834;9.194;2023-02-28T00:23:12;0.10;26.20
3067;DHT22;1544;48.834;9.194;2023-02-28T00:25:47;0.10;26.30
3067;DHT22;1544;48.834;9.194;2023-02-28T00:28:23;0.10;26.30
3067;DHT22;1544;48.834;9.194;2023-02-28T00:30:59;0.10;26.30
3067;DHT22;1544;48.834;9.194;2023-02-28T00:33:36;0.10;26.30
3067;DHT22;1544;48.834;9.194;2023-02-28T00:36:11;0.00;26.40
3067;DHT22;1544;48.834;9.194;2023-02-28T00:38:46;0.00;26.50
3067;DHT22;1544;48.834;9.194;2023-02-28T00:41:21;0.00;26.50
3067;DHT22;1544;48.834;9.194;2023-02-28T00:43:56;0.00;26.50
3067;DHT22;1544;48.834;9.194;2023-02-28T00:46:31;0.00;26.50
3067;DHT22;1544;48.834;9.194;2023-02-28T00:49:06;-0.10;26.60
3067;DHT22;1544;48.834;9.194;2023-02-28T00:51:43;-0.10;26.60
3067;DHT22;1544;48.834;9.194;2023-02-28T00:54:18;-0.10;26.70
3067;DHT22;1544;48.834;9.194;2023-02-28T00:56:54;-0.10;26.80
3067;DHT22;1544;48.834;9.194;2023-02-28T00:59:29;-0.10;26.90
3067;DHT22;1544;48.834;9.194;2023-02-28T01:02:04;-0.10;27.00
3067;DHT22;1544;48.834;9.194;2023-02-28T01:04:39;-0.10;27.00
3067;DHT22;1544;48.834;9.194;2023-02-28T01:07:14;-0.20;27.10
3067;DHT22;1544;48.834;9.194;2023-02-28T01:09:49;-0.20;27.10
3067;DHT22;1544;48.834;9.194;2023-02-28T01:12:24;-0.20;27.20
3067;DHT22;1544;48.834;9.194;2023-02-28T01:14:59;-0.20;27.20
3067;DHT22;1544;48.834;9.194;2023-02-28T01:17:35;-0.20;27.20
3067;DHT22;1544;48.834;9.194;2023-02-28T01:20:11;-0.20;27.30
3067;DHT22;1544;48.834;9.194;2023-02-28T01:22:46;-0.20;27.30
3067;DHT22;1544;48.834;9.194;2023-02-28T01:25:21;-0.20;27.40
3067;DHT22;1544;48.834;9.194;2023-02-28T01:27:56;-0.20;27.50
3067;DHT22;1544;48.834;9.194;2023-02-28T01:30:34;-0.20;27.60
3067;DHT22;1544;48.834;9.194;2023-02-28T01:33:09;-0.30;27.60
3067;DHT22;1544;48.834;9.194;2023-02-28T01:35:44;-0.20;27.70
3067;DHT22;1544;48.834;9.194;2023-02-28T01:38:19;-0.20;27.70
3067;DHT22;1544;48.834;9.194;2023-02-28T01:40:57;-0.30;27.70
3067;DHT22;1544;48.834;9.194;2023-02-28T01:43:53;-0.30;27.80
3067;DHT22;1544;48.834;9.194;2023-02-28T01:46:33;-0.30;27.90
3067;DHT22;1544;48.834;9.194;2023-02-28T01:49:15;-0.30;28.00
3067;DHT22;1544;48.834;9.194;2023-02-28T01:51:54;-0.30;28.00
3067;DHT22;1544;48.834;9.194;2023-02-28T01:54:31;-0.30;28.10
3067;DHT22;1544;48.834;9.194;2023-02-28T01:57:11;-0.40;28.10
3067;DHT22;1544;48.834;9.194;2023-02-28T02:00:03;-0.40;28.10
3067;DHT22;1544;48.834;9.194;2023-02-28T02:02:49;-0.40;28.20
3067;DHT22;1544;48.834;9.194;2023-02-28T02:05:28;-0.40;28.20
3067;DHT22;1544;48.834;9.194;2023-02-28T02:08:11;-0.40;28.30
3067;DHT22;1544;48.834;9.194;2023-02-28T02:10:52;-0.40;28.40
3067;DHT22;1544;48.834;9.194;2023-02-28T02:17:17;-0.50;28.40
3067;DHT22;1544;48.834;9.194;2023-02-28T02:23:55;-0.40;28.50
3067;DHT22;1544;48.834;9.194;2023-02-28T02:26:55;-0.50;28.50
3067;DHT22;1544;48.834;9.194;2023-02-28T02:36:28;-0.50;28.90
3067;DHT22;1544;48.834;9.194;2023-02-28T02:39:52;-0.50;28.90
3067;DHT22;1544;48.834;9.194;2023-02-28T02:42:18;-0.40;29.00
3067;DHT22;1544;48.834;9.194;2023-02-28T02:45:03;-0.40;29.00
3067;DHT22;1544;48.834;9.194;2023-02-28T02:47:43;-0.40;29.00
3067;DHT22;1544;48.834;9.194;2023-02-28T02:50:26;-0.30;29.10
3067;DHT22;1544;48.834;9.194;2023-02-28T02:53:07;-0.30;29.20
3067;DHT22;1544;48.834;9.194;2023-02-28T02:55:46;-0.30;29.20
3067;DHT22;1544;48.834;9.194;2023-02-28T02:58:34;-0.20;29.20
3067;DHT22;1544;48.834;9.194;2023-02-28T03:01:20;-0.20;29.20
3067;DHT22;1544;48.834;9.194;2023-02-28T03:04:10;-0.20;29.20
3067;DHT22;1544;48.834;9.194;2023-02-28T03:06:49;-0.20;29.30
3067;DHT22;1544;48.834;9.194;2023-02-28T03:09:29;-0.10;29.40
3067;DHT22;1544;48.834;9.194;2023-02-28T03:12:12;-0.10;29.40
3067;DHT22;1544;48.834;9.194;2023-02-28T03:15:04;-0.10;29.40
3067;DHT22;1544;48.834;9.194;2023-02-28T03:18:18;-0.10;29.40
3067;DHT22;1544;48.834;9.194;2023-02-28T03:21:06;0.00;29.50
3067;DHT22;1544;48.834;9.194;2023-02-28T03:27:10;0.00;29.60
3067;DHT22;1544;48.834;9.194;2023-02-28T03:30:10;0.00;29.60
3067;DHT22;1544;48.834;9.194;2023-02-28T03:32:59;0.00;29.70
3067;DHT22;1544;48.834;9.194;2023-02-28T03:36:02;0.10;29.70
3067;DHT22;1544;48.834;9.194;2023-02-28T03:38:49;0.10;29.70
3067;DHT22;1544;48.834;9.194;2023-02-28T03:41:32;0.20;29.80
3067;DHT22;1544;48.834;9.194;2023-02-28T03:44:21;0.20;29.70
3067;DHT22;1544;48.834;9.194;2023-02-28T03:47:03;0.30;29.70
3067;DHT22;1544;48.834;9.194;2023-02-28T03:50:09;0.30;29.60
3067;DHT22;1544;48.834;9.194;2023-02-28T03:53:42;0.40;29.70
3067;DHT22;1544;48.834;9.194;2023-02-28T03:56:05;0.40;29.70
3067;DHT22;1544;48.834;9.194;2023-02-28T03:59:08;0.40;29.70
3067;DHT22;1544;48.834;9.194;2023-02-28T04:01:49;0.50;29.70
3067;DHT22;1544;48.834;9.194;2023-02-28T04:04:24;0.50;29.70
3067;DHT22;1544;48.834;9.194;2023-02-28T04:07:05;0.50;29.70
3067;DHT22;1544;48.834;9.194;2023-02-28T04:09:42;0.60;29.70
3067;DHT22;1544;48.834;9.194;2023-02-28T04:12:17;0.60;29.70
3067;DHT22;1544;48.834;9.194;2023-02-28T04:14:52;0.60;29.70
3067;DHT22;1544;48.834;9.194;2023-02-28T04:17:27;0.70;29.70
3067;DHT22;1544;48.834;9.194;2023-02-28T04:20:03;0.70;29.60
3067;DHT22;1544;48.834;9.194;2023-02-28T04:22:43;0.70;29.60
3067;DHT22;1544;48.834;9.194;2023-02-28T04:25:18;0.70;29.70
3067;DHT22;1544;48.834;9.194;2023-02-28T04:27:53;0.70;29.70
3067;DHT22;1544;48.834;9.194;2023-02-28T04:30:28;0.70;29.80
3067;DHT22;1544;48.834;9.194;2023-02-28T04:33:04;0.80;29.80
3067;DHT22;1544;48.834;9.194;2023-02-28T04:35:39;0.80;29.80
3067;DHT22;1544;48.834;9.194;2023-02-28T04:38:14;0.70;29.80
3067;DHT22;1544;48.834;9.194;2023-02-28T04:40:49;0.70;29.80
3067;DHT22;1544;48.834;9.194;2023-02-28T04:43:24;0.70;29.80
3067;DHT22;1544;48.834;9.194;2023-02-28T04:46:02;0.80;29.80
3067;DHT22;1544;48.834;9.194;2023-02-28T04:48:39;0.80;29.80
3067;DHT22;1544;48.834;9.194;2023-02-28T04:51:17;0.80;29.70
3067;DHT22;1544;48.834;9.194;2023-02-28T04:53:54;0.80;29.80
3067;DHT22;1544;48.834;9.194;2023-02-28T04:56:29;0.90;29.80
3067;DHT22;1544;48.834;9.194;2023-02-28T04:59:04;0.90;29.70
3067;DHT22;1544;48.834;9.194;2023-02-28T05:01:40;0.90;29.70
3067;DHT22;1544;48.834;9.194;2023-02-28T05:04:15;0.90;29.70
3067;DHT22;1544;48.834;9.194;2023-02-28T05:06:50;1.00;29.70
3067;DHT22;1544;48.834;9.194;2023-02-28T05:09:26;1.00;29.70
3067;DHT22;1544;48.834;9.194;2023-02-28T05:12:01;1.00;29.70
3067;DHT22;1544;48.834;9.194;2023-02-28T05:14:36;1.00;29.70
3067;DHT22;1544;48.834;9.194;2023-02-28T05:17:11;1.10;29.70
3067;DHT22;1544;48.834;9.194;2023-02-28T05:19:46;1.10;30.00
3067;DHT22;1544;48.834;9.194;2023-02-28T05:22:24;1.00;29.60
3067;DHT22;1544;48.834;9.194;2023-02-28T05:24:59;1.00;29.70
3067;DHT22;1544;48.834;9.194;2023-02-28T05:27:34;1.10;29.80
3067;DHT22;1544;48.834;9.194;2023-02-28T05:30:10;1.10;29.70
3067;DHT22;1544;48.834;9.194;2023-02-28T05:32:50;1.10;29.80
3067;DHT22;1544;48.834;9.194;2023-02-28T05:35:26;1.20;29.80
3067;DHT22;1544;48.834;9.194;2023-02-28T05:38:01;1.20;29.80
3067;DHT22;1544;48.834;9.194;2023-02-28T05:40:38;1.20;29.70
3067;DHT22;1544;48.834;9.194;2023-02-28T05:43:15;1.20;29.80
3067;DHT22;1544;48.834;9.194;2023-02-28T05:45:50;1.20;29.80
3067;DHT22;1544;48.834;9.194;2023-02-28T05:48:25;1.20;29.70
3067;DHT22;1544;48.834;9.194;2023-02-28T05:51:01;1.20;29.70
3067;DHT22;1544;48.834;9.194;2023-02-28T05:53:37;1.30;29.70
3067;DHT22;1544;48.834;9.194;2023-02-28T05:56:12;1.20;29.70
3067;DHT22;1544;48.834;9.194;2023-02-28T05:58:47;1.20;29.60
3067;DHT22;1544;48.834;9.194;2023-02-28T06:01:37;1.30;29.70
3067;DHT22;1544;48.834;9.194;2023-02-28T06:04:18;1.30;29.60
3067;DHT22;1544;48.834;9.194;2023-02-28T06:07:07;1.30;29.60
3067;DHT22;1544;48.834;9.194;2023-02-28T06:09:43;1.30;29.60
3067;DHT22;1544;48.834;9.194;2023-02-28T06:12:18;1.30;29.60
3067;DHT22;1544;48.834;9.194;2023-02-28T06:14:53;1.30;29.50
3067;DHT22;1544;48.834;9.194;2023-02-28T06:17:28;1.30;29.50
3067;DHT22;1544;48.834;9.194;2023-02-28T06:20:04;1.20;29.50
3067;DHT22;1544;48.834;9.194;2023-02-28T06:22:40;1.20;29.50
3067;DHT22;1544;48.834;9.194;2023-02-28T06:25:15;1.30;29.50
3067;DHT22;1544;48.834;9.194;2023-02-28T06:27:50;1.30;29.60
3067;DHT22;1544;48.834;9.194;2023-02-28T06:30:25;1.30;29.50
3067;DHT22;1544;48.834;9.194;2023-02-28T06:33:01;1.40;29.50
3067;DHT22;1544;48.834;9.194;2023-02-28T06:35:38;1.40;29.50
3067;DHT22;1544;48.834;9.194;2023-02-28T06:38:14;1.40;29.50
3067;DHT22;1544;48.834;9.194;2023-02-28T06:40:57;1.40;29.50
3067;DHT22;1544;48.834;9.194;2023-02-28T06:43:36;1.50;29.50
3067;DHT22;1544;48.834;9.194;2023-02-28T06:46:16;1.50;29.50
3067;DHT22;1544;48.834;9.194;2023-02-28T06:48:52;1.60;29.50
3067;DHT22;1544;48.834;9.194;2023-02-28T06:51:27;1.60;29.50
3067;DHT22;1544;48.834;9.194;2023-02-28T06:54:04;1.60;29.50
3067;DHT22;1544;48.834;9.194;2023-02-28T06:56:39;1.60;29.40
3067;DHT22;1544;48.834;9.194;2023-02-28T06:59:14;1.70;29.50
3067;DHT22;1544;48.834;9.194;2023-02-28T07:01:49;1.70;29.50
3067;DHT22;1544;48.834;9.194;2023-02-28T07:04:24;1.80;29.50
3067;DHT22;1544;48.834;9.194;2023-02-28T07:07:00;1.70;29.40
3067;DHT22;1544;48.834;9.194;2023-02-28T07:09:35;1.80;29.30
3067;DHT22;1544;48.834;9.194;2023-02-28T07:12:10;1.80;29.20
3067;DHT22;1544;48.834;9.194;2023-02-28T07:14:45;1.80;29.20
3067;DHT22;1544;48.834;9.194;2023-02-28T07:17:20;1.80;29.20
3067;DHT22;1544;48.834;9.194;2023-02-28T07:19:55;1.80;29.20
3067;DHT22;1544;48.834;9.194;2023-02-28T07:22:30;1.70;29.20
3067;DHT22;1544;48.834;9.194;2023-02-28T07:25:05;1.70;29.40
3067;DHT22;1544;48.834;9.194;2023-02-28T07:27:41;1.80;29.20
3067;DHT22;1544;48.834;9.194;2023-02-28T07:30:16;1.80;29.10
3067;DHT22;1544;48.834;9.194;2023-02-28T07:32:53;1.70;29.10
3067;DHT22;1544;48.834;9.194;2023-02-28T07:35:31;1.80;29.20
3067;DHT22;1544;48.834;9.194;2023-02-28T07:38:06;1.80;29.10
3067;DHT22;1544;48.834;9.194;2023-02-28T07:40:42;1.80;29.00
3067;DHT22;1544;48.834;9.194;2023-02-28T07:43:18;1.80;29.10
3067;DHT22;1544;48.834;9.194;2023-02-28T07:45:53;1.90;29.10
3067;DHT22;1544;48.834;9.194;2023-02-28T07:48:28;1.90;29.10
3067;DHT22;1544;48.834;9.194;2023-02-28T07:51:03;1.90;29.10
3067;DHT22;1544;48.834;9.194;2023-02-28T07:53:38;1.90;29.00
3067;DHT22;1544;48.834;9.194;2023-02-28T07:56:13;2.00;29.10
3067;DHT22;1544;48.834;9.194;2023-02-28T07:58:48;2.00;29.00
3067;DHT22;1544;48.834;9.194;2023-02-28T08:01:23;2.00;28.90
3067;DHT22;1544;48.834;9.194;2023-02-28T08:03:59;2.00;28.90
3067;DHT22;1544;48.834;9.194;2023-02-28T08:06:34;2.10;28.90
3067;DHT22;1544;48.834;9.194;2023-02-28T08:09:09;2.20;28.90
3067;DHT22;1544;48.834;9.194;2023-02-28T08:11:45;2.20;28.90
3067;DHT22;1544;48.834;9.194;2023-02-28T08:14:20;2.30;28.80
3067;DHT22;1544;48.834;9.194;2023-02-28T08:16:55;2.30;28.80
3067;DHT22;1544;48.834;9.194;2023-02-28T08:19:30;2.40;28.70
3067;DHT22;1544;48.834;9.194;2023-02-28T08:22:05;2.50;28.70
3067;DHT22;1544;48.834;9.194;2023-02-28T08:24:41;2.50;28.60
3067;DHT22;1544;48.834;9.194;2023-02-28T08:27:17;2.60;28.60
3067;DHT22;1544;48.834;9.194;2023-02-28T08:29:52;2.70;28.60
3067;DHT22;1544;48.834;9.194;2023-02-28T08:32:27;2.70;28.50
3067;DHT22;1544;48.834;9.194;2023-02-28T08:35:04;2.80;28.50
3067;DHT22;1544;48.834;9.194;2023-02-28T08:37:40;2.90;28.60
3067;DHT22;1544;48.834;9.194;2023-02-28T08:40:16;2.90;28.50
3067;DHT22;1544;48.834;9.194;2023-02-28T08:42:53;3.10;28.60
3067;DHT22;1544;48.834;9.194;2023-02-28T08:45:28;3.10;28.50
3067;DHT22;1544;48.834;9.194;2023-02-28T08:48:03;3.20;28.30
3067;DHT22;1544;48.834;9.194;2023-02-28T08:50:38;3.30;28.20
3067;DHT22;1544;48.834;9.194;2023-02-28T08:53:13;3.20;28.10
3067;DHT22;1544;48.834;9.194;2023-02-28T08:55:59;3.30;28.00
3067;DHT22;1544;48.834;9.194;2023-02-28T08:58:35;3.40;28.00
3067;DHT22;1544;48.834;9.194;2023-02-28T09:01:22;3.40;27.90
3067;DHT22;1544;48.834;9.194;2023-02-28T09:04:02;3.50;27.90
3067;DHT22;1544;48.834;9.194;2023-02-28T09:06:40;3.50;27.60
3067;DHT22;1544;48.834;9.194;2023-02-28T09:09:15;3.50;27.80
3067;DHT22;1544;48.834;9.194;2023-02-28T09:11:50;3.60;27.90
3067;DHT22;1544;48.834;9.194;2023-02-28T09:14:25;3.70;27.80
3067;DHT22;1544;48.834;9.194;2023-02-28T09:17:00;3.80;27.70
3067;DHT22;1544;48.834;9.194;2023-02-28T09:19:35;3.90;27.70
3067;DHT22;1544;48.834;9.194;2023-02-28T09:22:11;4.00;27.80
3067;DHT22;1544;48.834;9.194;2023-02-28T09:24:46;4.00;27.70
3067;DHT22;1544;48.834;9.194;2023-02-28T09:27:21;4.20;27.70
3067;DHT22;1544;48.834;9.194;2023-02-28T09:29:56;4.20;27.40
3067;DHT22;1544;48.834;9.194;2023-02-28T09:32:31;4.30;27.40
3067;DHT22;1544;48.834;9.194;2023-02-28T09:35:07;4.40;27.30
3067;DHT22;1544;48.834;9.194;2023-02-28T09:37:48;4.40;27.00
3067;DHT22;1544;48.834;9.194;2023-02-28T09:40:26;4.50;26.90
3067;DHT22;1544;48.834;9.194;2023-02-28T09:43:01;4.60;26.80
3067;DHT22;1544;48.834;9.194;2023-02-28T09:45:39;4.70;26.40
3067;DHT22;1544;48.834;9.194;2023-02-28T09:48:23;4.70;26.10
3067;DHT22;1544;48.834;9.194;2023-02-28T09:51:11;4.70;26.10
3067;DHT22;1544;48.834;9.194;2023-02-28T09:53:50;4.60;26.00
3067;DHT22;1544;48.834;9.194;2023-02-28T09:56:40;4.50;26.00
3067;DHT22;1544;48.834;9.194;2023-02-28T09:59:38;4.60;26.00
3067;DHT22;1544;48.834;9.194;2023-02-28T10:02:46;4.80;26.10
3067;DHT22;1544;48.834;9.194;2023-02-28T10:05:54;4.90;26.00
3067;DHT22;1544;48.834;9.194;2023-02-28T10:09:03;5.10;26.00
3067;DHT22;1544;48.834;9.194;2023-02-28T10:11:40;5.30;26.10
3067;DHT22;1544;48.834;9.194;2023-02-28T10:14:22;5.40;26.00
3067;DHT22;1544;48.834;9.194;2023-02-28T10:17:04;5.60;25.90
3067;DHT22;1544;48.834;9.194;2023-02-28T10:20:29;5.80;26.00
3067;DHT22;1544;48.834;9.194;2023-02-28T10:25:59;6.00;25.70
3067;DHT22;1544;48.834;9.194;2023-02-28T10:28:37;6.10;25.60
3067;DHT22;1544;48.834;9.194;2023-02-28T10:31:17;6.20;25.50
3067;DHT22;1544;48.834;9.194;2023-02-28T10:33:53;6.30;25.40
3067;DHT22;1544;48.834;9.194;2023-02-28T10:36:28;6.30;25.20
3067;DHT22;1544;48.834;9.194;2023-02-28T10:39:33;6.40;25.20
3067;DHT22;1544;48.834;9.194;2023-02-28T10:42:27;6.50;25.30
3067;DHT22;1544;48.834;9.194;2023-02-28T10:45:11;6.60;25.30
3067;DHT22;1544;48.834;9.194;2023-02-28T10:48:02;6.80;25.40
3067;DHT22;1544;48.834;9.194;2023-02-28T10:53:32;6.90;25.00
3067;DHT22;1544;48.834;9.194;2023-02-28T10:56:29;6.90;24.90
3067;DHT22;1544;48.834;9.194;2023-02-28T11:01:49;7.20;25.00
3067;DHT22;1544;48.834;9.194;2023-02-28T11:07:25;7.30;24.90
3067;DHT22;1544;48.834;9.194;2023-02-28T11:10:20;7.10;24.70
3067;DHT22;1544;48.834;9.194;2023-02-28T11:12:57;7.00;24.80
3067;DHT22;1544;48.834;9.194;2023-02-28T11:15:35;7.00;24.90
3067;DHT22;1544;48.834;9.194;2023-02-28T11:20:53;7.00;24.90
3067;DHT22;1544;48.834;9.194;2023-02-28T11:23:30;6.90;24.80
3067;DHT22;1544;48.834;9.194;2023-02-28T11:26:09;7.00;25.00
3067;DHT22;1544;48.834;9.194;2023-02-28T11:28:45;7.00;25.00
3067;DHT22;1544;48.834;9.194;2023-02-28T11:31:20;7.20;25.10
3067;DHT22;1544;48.834;9.194;2023-02-28T11:33:57;7.20;25.00
3067;DHT22;1544;48.834;9.194;2023-02-28T11:36:32;7.30;25.10
3067;DHT22;1544;48.834;9.194;2023-02-28T11:39:10;7.40;25.10
3067;DHT22;1544;48.834;9.194;2023-02-28T11:48:23;7.70;25.40
3067;DHT22;1544;48.834;9.194;2023-02-28T12:04:11;8.10;24.60
3067;DHT22;1544;48.834;9.194;2023-02-28T12:13:29;9.00;24.50
3067;DHT22;1544;48.834;9.194;2023-02-28T12:16:26;9.10;24.20
3067;DHT22;1544;48.834;9.194;2023-02-28T12:19:20;9.40;24.30
3067;DHT22;1544;48.834;9.194;2023-02-28T12:27:46;10.10;23.20
3067;DHT22;1544;48.834;9.194;2023-02-28T12:30:30;10.30;23.40
3067;DHT22;1544;48.834;9.194;2023-02-28T12:33:12;10.40;23.30
3067;DHT22;1544;48.834;9.194;2023-02-28T12:35:59;10.40;23.20
3067;DHT22;1544;48.834;9.194;2023-02-28T12:39:01;10.60;23.50
3067;DHT22;1544;48.834;9.194;2023-02-28T12:44:48;11.00;23.00
3067;DHT22;1544;48.834;9.194;2023-02-28T12:47:32;11.00;22.80
3067;DHT22;1544;48.834;9.194;2023-02-28T12:50:11;11.20;23.10
3067;DHT22;1544;48.834;9.194;2023-02-28T12:53:04;11.10;22.80
3067;DHT22;1544;48.834;9.194;2023-02-28T12:55:50;11.10;22.60
3067;DHT22;1544;48.834;9.194;2023-02-28T12:58:36;11.20;23.10
3067;DHT22;1544;48.834;9.194;2023-02-28T13:04:42;11.50;22.70
3067;DHT22;1544;48.834;9.194;2023-02-28T13:08:11;11.60;22.80
3067;DHT22;1544;48.834;9.194;2023-02-28T13:11:44;11.80;22.30
3067;DHT22;1544;48.834;9.194;2023-02-28T13:19:46;12.60;22.80
3067;DHT22;1544;48.834;9.194;2023-02-28T13:22:42;12.70;22.20
3067;DHT22;1544;48.834;9.194;2023-02-28T13:27:56;13.10;23.40
3067;DHT22;1544;48.834;9.194;2023-02-28T13:36:29;13.60;22.80
3067;DHT22;1544;48.834;9.194;2023-02-28T13:42:23;14.00;22.60
3067;DHT22;1544;48.834;9.194;2023-02-28T13:48:02;14.30;22.60
3067;DHT22;1544;48.834;9.194;2023-02-28T13:50:38;14.40;22.20
3067;DHT22;1544;48.834;9.194;2023-02-28T13:56:07;14.50;21.80
3067;DHT22;1544;48.834;9.194;2023-02-28T14:03:14;14.60;22.00
3067;DHT22;1544;48.834;9.194;2023-02-28T14:06:19;14.60;21.80
3067;DHT22;1544;48.834;9.194;2023-02-28T14:11:46;14.80;21.50
3067;DHT22;1544;48.834;9.194;2023-02-28T14:17:16;15.00;22.90
3067;DHT22;1544;48.834;9.194;2023-02-28T14:19:51;15.10;22.00
3067;DHT22;1544;48.834;9.194;2023-02-28T14:22:54;15.20;22.40
3067;DHT22;1544;48.834;9.194;2023-02-28T14:31:57;15.30;21.90
3067;DHT22;1544;48.834;9.194;2023-02-28T14:34:53;15.40;22.80
3067;DHT22;1544;48.834;9.194;2023-02-28T14:37:39;15.50;21.30
3067;DHT22;1544;48.834;9.194;2023-02-28T14:40:29;15.40;21.50
3067;DHT22;1544;48.834;9.194;2023-02-28T14:43:19;15.40;22.40
3067;DHT22;1544;48.834;9.194;2023-02-28T14:46:04;15.40;21.60
3067;DHT22;1544;48.834;9.194;2023-02-28T14:48:40;15.40;21.40
3067;DHT22;1544;48.834;9.194;2023-02-28T14:51:22;15.30;21.40
3067;DHT22;1544;48.834;9.194;2023-02-28T14:54:00;15.30;22.30
3067;DHT22;1544;48.834;9.194;2023-02-28T14:56:38;15.40;21.80
3067;DHT22;1544;48.834;9.194;2023-02-28T14:59:32;15.50;22.20
3067;DHT22;1544;48.834;9.194;2023-02-28T15:02:20;15.50;21.40
3067;DHT22;1544;48.834;9.194;2023-02-28T15:05:50;15.40;20.80
3067;DHT22;1544;48.834;9.194;2023-02-28T15:08:15;15.30;21.10
3067;DHT22;1544;48.834;9.194;2023-02-28T15:11:01;15.30;20.80
3067;DHT22;1544;48.834;9.194;2023-02-28T15:13:47;15.20;21.80
3067;DHT22;1544;48.834;9.194;2023-02-28T15:16:25;15.20;22.20
3067;DHT22;1544;48.834;9.194;2023-02-28T15:19:14;15.20;22.00
3067;DHT22;1544;48.834;9.194;2023-02-28T15:22:15;15.10;21.60
3067;DHT22;1544;48.834;9.194;2023-02-28T15:24:53;15.00;22.20
3067;DHT22;1544;48.834;9.194;2023-02-28T15:27:30;14.90;21.90
3067;DHT22;1544;48.834;9.194;2023-02-28T15:30:12;14.80;22.20
3067;DHT22;1544;48.834;9.194;2023-02-28T15:33:20;14.50;21.60
3067;DHT22;1544;48.834;9.194;2023-02-28T15:36:14;14.20;21.20
3067;DHT22;1544;48.834;9.194;2023-02-28T15:38:51;13.90;21.50
3067;DHT22;1544;48.834;9.194;2023-02-28T15:41:30;13.70;21.60
3067;DHT22;1544;48.834;9.194;2023-02-28T15:44:26;13.50;21.90
3067;DHT22;1544;48.834;9.194;2023-02-28T15:47:11;13.30;22.20
3067;DHT22;1544;48.834;9.194;2023-02-28T15:49:54;13.20;21.70
3067;DHT22;1544;48.834;9.194;2023-02-28T15:52:42;12.90;21.40
3067;DHT22;1544;48.834;9.194;2023-02-28T15:55:24;12.80;21.80
3067;DHT22;1544;48.834;9.194;2023-02-28T15:58:02;12.70;21.80
3067;DHT22;1544;48.834;9.194;2023-02-28T16:00:38;12.50;21.50
3067;DHT22;1544;48.834;9.194;2023-02-28T16:03:27;12.50;21.70
3067;DHT22;1544;48.834;9.194;2023-02-28T16:09:16;12.20;22.10
3067;DHT22;1544;48.834;9.194;2023-02-28T16:11:54;12.00;21.50
3067;DHT22;1544;48.834;9.194;2023-02-28T16:14:30;11.80;21.90
3067;DHT22;1544;48.834;9.194;2023-02-28T16:17:38;11.70;22.20
3067;DHT22;1544;48.834;9.194;2023-02-28T16:20:27;11.60;22.30
3067;DHT22;1544;48.834;9.194;2023-02-28T16:23:03;11.40;22.20
3067;DHT22;1544;48.834;9.194;2023-02-28T16:25:41;11.20;22.70
3067;DHT22;1544;48.834;9.194;2023-02-28T16:28:31;11.10;22.90
3067;DHT22;1544;48.834;9.194;2023-02-28T16:31:09;10.90;22.40
3067;DHT22;1544;48.834;9.194;2023-02-28T16:33:49;10.70;22.30
3067;DHT22;1544;48.834;9.194;2023-02-28T16:36:24;10.50;22.60
3067;DHT22;1544;48.834;9.194;2023-02-28T16:39:02;10.30;22.40
3067;DHT22;1544;48.834;9.194;2023-02-28T16:41:42;10.10;22.40
3067;DHT22;1544;48.834;9.194;2023-02-28T16:44:27;9.90;23.20
3067;DHT22;1544;48.834;9.194;2023-02-28T16:47:04;9.80;23.30
3067;DHT22;1544;48.834;9.194;2023-02-28T16:49:39;9.60;23.30
3067;DHT22;1544;48.834;9.194;2023-02-28T16:52:17;9.40;23.60
3067;DHT22;1544;48.834;9.194;2023-02-28T16:54:51;9.20;23.50
3067;DHT22;1544;48.834;9.194;2023-02-28T16:57:28;9.10;23.50
3067;DHT22;1544;48.834;9.194;2023-02-28T17:00:07;8.90;24.20
3067;DHT22;1544;48.834;9.194;2023-02-28T17:02:47;8.80;23.70
3067;DHT22;1544;48.834;9.194;2023-02-28T17:05:22;8.60;23.80
3067;DHT22;1544;48.834;9.194;2023-02-28T17:07:58;8.50;23.80
3067;DHT22;1544;48.834;9.194;2023-02-28T17:10:33;8.30;23.90
3067;DHT22;1544;48.834;9.194;2023-02-28T17:13:08;8.10;24.10
3067;DHT22;1544;48.834;9.194;2023-02-28T17:15:49;8.00;24.10
3067;DHT22;1544;48.834;9.194;2023-02-28T17:18:24;7.90;24.30
3067;DHT22;1544;48.834;9.194;2023-02-28T17:21:00;7.70;24.40
3067;DHT22;1544;48.834;9.194;2023-02-28T17:23:35;7.60;24.60
3067;DHT22;1544;48.834;9.194;2023-02-28T17:26:17;7.50;24.60
3067;DHT22;1544;48.834;9.194;2023-02-28T17:28:57;7.30;24.50
3067;DHT22;1544;48.834;9.194;2023-02-28T17:31:32;7.20;24.60
3067;DHT22;1544;48.834;9.194;2023-02-28T17:34:15;7.10;24.60
3067;DHT22;1544;48.834;9.194;2023-02-28T17:36:54;6.90;24.60
3067;DHT22;1544;48.834;9.194;2023-02-28T17:39:29;6.90;24.80
3067;DHT22;1544;48.834;9.194;2023-02-28T17:42:05;6.80;24.70
3067;DHT22;1544;48.834;9.194;2023-02-28T17:44:40;6.70;24.70
3067;DHT22;1544;48.834;9.194;2023-02-28T17:47:15;6.60;25.20
3067;DHT22;1544;48.834;9.194;2023-02-28T17:49:50;6.50;25.00
3067;DHT22;1544;48.834;9.194;2023-02-28T17:52:25;6.40;25.00
3067;DHT22;1544;48.834;9.194;2023-02-28T17:55:01;6.40;25.00
3067;DHT22;1544;48.834;9.194;2023-02-28T17:57:36;6.30;25.10
3067;DHT22;1544;48.834;9.194;2023-02-28T18:00:14;6.30;25.20
3067;DHT22;1544;48.834;9.194;2023-02-28T18:02:51;6.20;25.20
3067;DHT22;1544;48.834;9.194;2023-02-28T18:05:26;6.10;25.10
3067;DHT22;1544;48.834;9.194;2023-02-28T18:08:01;6.10;25.20
3067;DHT22;1544;48.834;9.194;2023-02-28T18:10:37;6.00;25.30
3067;DHT22;1544;48.834;9.194;2023-02-28T18:13:11;5.90;25.30
3067;DHT22;1544;48.834;9.194;2023-02-28T18:15:47;5.80;25.30
3067;DHT22;1544;48.834;9.194;2023-02-28T18:18:22;5.70;25.30
3067;DHT22;1544;48.834;9.194;2023-02-28T18:20:57;5.70;25.30
3067;DHT22;1544;48.834;9.194;2023-02-28T18:23:32;5.70;25.40
3067;DHT22;1544;48.834;9.194;2023-02-28T18:26:07;5.60;25.40
3067;DHT22;1544;48.834;9.194;2023-02-28T18:28:44;5.50;25.30
3067;DHT22;1544;48.834;9.194;2023-02-28T18:31:20;5.50;25.40
3067;DHT22;1544;48.834;9.194;2023-02-28T18:33:54;5.50;25.40
3067;DHT22;1544;48.834;9.194;2023-02-28T18:36:29;5.40;25.40
3067;DHT22;1544;48.834;9.194;2023-02-28T18:39:05;5.30;25.50
3067;DHT22;1544;48.834;9.194;2023-02-28T18:41:40;5.30;25.60
3067;DHT22;1544;48.834;9.194;2023-02-28T18:44:16;5.20;25.60
3067;DHT22;1544;48.834;9.194;2023-02-28T18:46:54;5.20;25.70
3067;DHT22;1544;48.834;9.194;2023-02-28T18:49:32;5.10;25.60
3067;DHT22;1544;48.834;9.194;2023-02-28T18:52:11;5.10;25.70
3067;DHT22;1544;48.834;9.194;2023-02-28T18:54:46;5.00;25.70
3067;DHT22;1544;48.834;9.194;2023-02-28T18:57:21;5.10;25.80
3067;DHT22;1544;48.834;9.194;2023-02-28T18:59:55;5.00;25.80
3067;DHT22;1544;48.834;9.194;2023-02-28T19:02:30;5.00;25.90
3067;DHT22;1544;48.834;9.194;2023-02-28T19:05:06;4.90;25.80
3067;DHT22;1544;48.834;9.194;2023-02-28T19:07:41;4.90;26.10
3067;DHT22;1544;48.834;9.194;2023-02-28T19:10:17;4.90;25.90
3067;DHT22;1544;48.834;9.194;2023-02-28T19:12:52;4.80;25.90
3067;DHT22;1544;48.834;9.194;2023-02-28T19:15:27;4.80;26.00
3067;DHT22;1544;48.834;9.194;2023-02-28T19:18:02;4.70;25.90
3067;DHT22;1544;48.834;9.194;2023-02-28T19:20:37;4.70;26.00
3067;DHT22;1544;48.834;9.194;2023-02-28T19:23:13;4.60;26.00
3067;DHT22;1544;48.834;9.194;2023-02-28T19:25:48;4.60;26.30
3067;DHT22;1544;48.834;9.194;2023-02-28T19:28:28;4.60;26.10
3067;DHT22;1544;48.834;9.194;2023-02-28T19:31:04;4.50;26.10